Albany, New York
Traffic Map
Current Weather Conditions
Albany, New York
Broken Clouds
Broken Clouds
25°
Feels Like: 26°
Wind Chill: 25° Ceiling: 27000
Heat Index: 26° Visibility: 10mi
Dew Point: 20° Wind: 10mph
Humidity: 74% Direction: 180° (S)
Pressure: 29.86in Gusts: 0mph
Raw Report DataKALB 301151Z 18009KT 10SM FEW200 SCT240 BKN270 25/20 A2986 RMK AO2 SLP108 T02500200 10250 20233 56003
Traffic Incident Summary
Active as of:
Severity:
Category:
InformationThere was an issue retrieving the traffic information for this location. Please try a different location or try again shortly.
Advertisements
Track Severe Weather on mobile